createdAt,value
2019-03-24T00:00:14.671Z,7.6
2019-03-24T00:01:15.222Z,7.5
2019-03-24T00:02:15.117Z,7.4
2019-03-24T00:03:15.019Z,7.4
2019-03-24T00:04:14.910Z,7.3
2019-03-24T00:05:14.823Z,7.3
2019-03-24T00:06:14.727Z,7.2
2019-03-24T00:07:14.660Z,7.2
2019-03-24T00:08:14.547Z,7.2
2019-03-24T00:09:14.427Z,7.1
2019-03-24T00:10:14.338Z,7
2019-03-24T00:11:14.655Z,7
2019-03-24T00:12:14.544Z,6.9
2019-03-24T00:13:14.435Z,6.9
2019-03-24T00:14:14.344Z,6.8
2019-03-24T00:15:14.249Z,6.8
2019-03-24T00:16:25.275Z,6.8
2019-03-24T00:17:25.175Z,6.8
2019-03-24T00:18:25.308Z,6.8
2019-03-24T00:19:25.199Z,6.8
2019-03-24T00:20:25.111Z,6.7
2019-03-24T00:21:25.409Z,6.7
2019-03-24T00:22:25.298Z,6.7
2019-03-24T00:23:25.192Z,6.7
2019-03-24T00:24:25.078Z,6.7
2019-03-24T00:25:25.076Z,6.8
2019-03-24T00:26:24.961Z,6.8
2019-03-24T00:27:24.854Z,6.8
2019-03-24T00:28:24.753Z,6.8
2019-03-24T00:29:24.656Z,6.8
2019-03-24T00:30:24.538Z,6.8
2019-03-24T00:31:24.896Z,6.7
2019-03-24T00:32:24.774Z,6.7
2019-03-24T00:33:24.659Z,6.7
2019-03-24T00:34:24.562Z,6.7
2019-03-24T00:35:24.456Z,6.6
2019-03-24T00:36:24.368Z,6.7
2019-03-24T00:37:24.259Z,6.6
2019-03-24T00:38:24.148Z,6.7
2019-03-24T00:39:26.766Z,6.7
2019-03-24T00:40:26.712Z,6.7
2019-03-24T00:41:27.079Z,6.6
2019-03-24T00:42:27.006Z,6.6
2019-03-24T00:43:26.905Z,6.6
2019-03-24T00:44:26.814Z,6.5
2019-03-24T00:45:37.689Z,6.5
2019-03-24T00:46:37.578Z,6.5
2019-03-24T00:47:37.520Z,6.4
2019-03-24T00:48:37.426Z,6.4
2019-03-24T00:49:37.328Z,6.5
2019-03-24T00:50:37.222Z,6.4
2019-03-24T00:51:37.617Z,6.4
2019-03-24T00:52:37.497Z,6.4
2019-03-24T00:53:37.434Z,6.4
2019-03-24T00:54:37.336Z,6.4
2019-03-24T00:55:37.215Z,6.4
2019-03-24T00:56:37.128Z,6.4
2019-03-24T00:57:38.328Z,6.4
2019-03-24T00:58:38.216Z,6.4
2019-03-24T00:59:38.134Z,6.4
2019-03-24T01:00:38.022Z,6.4
2019-03-24T01:01:38.352Z,6.4
2019-03-24T01:02:38.222Z,6.4
2019-03-24T01:03:38.146Z,6.4
2019-03-24T01:04:38.024Z,6.4
2019-03-24T01:05:37.920Z,6.4
2019-03-24T01:06:37.826Z,6.4
2019-03-24T01:07:37.745Z,6.4
2019-03-24T01:08:37.637Z,6.4
2019-03-24T01:09:37.542Z,6.3
2019-03-24T01:10:37.420Z,6.4
2019-03-24T01:11:37.747Z,6.4
2019-03-24T01:12:37.686Z,6.4
2019-03-24T01:13:37.583Z,6.3
2019-03-24T01:14:37.496Z,6.4
2019-03-24T01:15:48.614Z,6.3
2019-03-24T01:16:48.511Z,6.3
2019-03-24T01:17:48.441Z,6.3
2019-03-24T01:18:48.332Z,6.3
2019-03-24T01:19:48.222Z,6.2
2019-03-24T01:20:48.174Z,6.2
2019-03-24T01:21:48.572Z,6.2
2019-03-24T01:22:48.488Z,6.2
2019-03-24T01:23:48.376Z,6.2
2019-03-24T01:24:48.248Z,6.2
2019-03-24T01:25:48.125Z,6.1
2019-03-24T01:26:48.030Z,6.2
2019-03-24T01:27:47.952Z,6.1
2019-03-24T01:28:47.840Z,6.1
2019-03-24T01:29:47.744Z,6.1
2019-03-24T01:30:47.626Z,6
2019-03-24T01:31:47.978Z,6
2019-03-24T01:41:46.012Z,6.5
2019-03-24T01:42:45.904Z,6.5
2019-03-24T01:43:45.807Z,6.4
2019-03-24T01:44:45.743Z,6.4
2019-03-24T01:45:45.639Z,6.4
2019-03-24T01:46:45.533Z,6.3
2019-03-24T01:47:45.409Z,6.2
2019-03-24T01:48:45.318Z,6.1
2019-03-24T01:49:45.266Z,6.1
2019-03-24T01:50:45.156Z,6.1
2019-03-24T01:51:45.476Z,6
2019-03-24T01:52:45.382Z,6
2019-03-24T01:53:45.286Z,6
2019-03-24T02:01:43.830Z,6.4
2019-03-24T02:02:43.714Z,6.4
2019-03-24T02:03:43.613Z,6.4
2019-03-24T02:04:43.484Z,6.4
2019-03-24T02:05:43.438Z,6.3
2019-03-24T02:06:43.361Z,6.3
2019-03-24T02:07:43.256Z,6.2
2019-03-24T02:08:43.205Z,6.1
2019-03-24T02:09:43.133Z,6.1
2019-03-24T02:10:43.055Z,6.1
2019-03-24T02:11:43.369Z,6.1
2019-03-24T02:12:43.258Z,6.1
2019-03-24T02:13:43.151Z,6
2019-03-24T02:14:43.054Z,6
2019-03-24T02:15:42.981Z,5.9
2019-03-24T02:16:42.873Z,5.9
2019-03-24T02:17:42.785Z,5.9
2019-03-24T02:18:42.687Z,5.8
2019-03-24T02:19:42.590Z,5.8
2019-03-24T02:20:42.573Z,5.7
2019-03-24T02:21:42.902Z,5.7
2019-03-24T02:22:42.810Z,5.7
2019-03-24T02:23:42.745Z,5.7
2019-03-24T02:24:42.632Z,5.7
2019-03-24T02:25:42.561Z,5.7
2019-03-24T02:26:42.476Z,5.7
2019-03-24T02:27:42.377Z,5.7
2019-03-24T02:28:42.273Z,5.7
2019-03-24T02:29:42.210Z,5.6
2019-03-24T02:30:42.170Z,5.6
2019-03-24T02:31:42.578Z,5.6
2019-03-24T02:32:42.513Z,5.6
2019-03-24T02:33:42.443Z,5.6
2019-03-24T02:34:42.384Z,5.6
2019-03-24T02:35:42.314Z,5.6
2019-03-24T02:36:42.244Z,5.6
2019-03-24T02:37:42.166Z,5.6
2019-03-24T02:38:42.087Z,5.5
2019-03-24T02:39:42.019Z,5.5
2019-03-24T02:40:41.955Z,5.5
2019-03-24T02:41:42.317Z,5.4
2019-03-24T02:42:42.283Z,5.4
2019-03-24T02:43:42.283Z,5.4
2019-03-24T02:44:42.220Z,5.4
2019-03-24T02:45:42.156Z,5.4
2019-03-24T02:46:42.058Z,5.4
2019-03-24T02:47:41.999Z,5.5
2019-03-24T02:48:41.958Z,5.5
2019-03-24T02:49:41.878Z,5.5
2019-03-24T02:50:41.765Z,5.4
2019-03-24T02:51:42.112Z,5.4
2019-03-24T02:52:42.072Z,5.4
2019-03-24T02:53:41.986Z,5.5
2019-03-24T02:54:41.907Z,5.5
2019-03-24T02:55:41.817Z,5.5
2019-03-24T02:56:41.830Z,5.5
2019-03-24T02:57:41.773Z,5.5
2019-03-24T02:58:41.699Z,5.5
2019-03-24T02:59:41.610Z,5.6
2019-03-24T03:00:41.570Z,5.5
2019-03-24T03:01:41.921Z,5.5
2019-03-24T03:02:41.867Z,5.5
2019-03-24T03:03:41.802Z,5.5
2019-03-24T03:04:41.726Z,5.5
2019-03-24T03:05:41.613Z,5.5
2019-03-24T03:06:41.524Z,5.4
2019-03-24T03:07:41.534Z,5.4
2019-03-24T03:08:41.453Z,5.4
2019-03-24T03:09:41.361Z,5.4
2019-03-24T03:10:41.261Z,5.4
2019-03-24T03:11:41.591Z,5.3
2019-03-24T03:12:41.522Z,5.2
2019-03-24T03:13:41.432Z,5.2
2019-03-24T03:14:41.350Z,5.2
2019-03-24T03:15:41.233Z,5.3
2019-03-24T03:16:41.218Z,5.3
2019-03-24T03:17:41.158Z,5.3
2019-03-24T03:18:41.109Z,5.3
2019-03-24T03:19:41.014Z,5.3
2019-03-24T03:20:40.923Z,5.4
2019-03-24T03:21:41.283Z,5.4
2019-03-24T03:22:41.231Z,5.4
2019-03-24T03:23:41.201Z,5.4
2019-03-24T03:24:41.106Z,5.4
2019-03-24T03:25:41.017Z,5.4
2019-03-24T03:26:40.920Z,5.3
2019-03-24T03:27:40.820Z,5.3
2019-03-24T03:28:40.752Z,5.3
2019-03-24T03:29:40.653Z,5.3
2019-03-24T03:30:40.622Z,5.4
2019-03-24T03:31:41.070Z,5.4
2019-03-24T03:32:41.002Z,5.3
2019-03-24T03:33:40.971Z,5.3
2019-03-24T03:34:40.926Z,5.3
2019-03-24T03:35:40.860Z,5.3
2019-03-24T03:36:40.803Z,5.3
2019-03-24T03:37:40.754Z,5.3
2019-03-24T03:38:40.681Z,5.3
2019-03-24T03:39:40.644Z,5.3
2019-03-24T03:40:40.649Z,5.3
2019-03-24T03:41:41.138Z,5.3
2019-03-24T03:42:41.046Z,5.3
2019-03-24T03:43:40.988Z,5.2
2019-03-24T03:44:40.914Z,5.2
2019-03-24T03:45:40.842Z,5.1
2019-03-24T03:46:53.817Z,5.1
2019-03-24T03:47:53.747Z,5.2
2019-03-24T03:48:53.650Z,5.1
2019-03-24T03:49:53.593Z,5.2
2019-03-24T03:50:53.529Z,5.2
2019-03-24T03:51:53.921Z,5.1
2019-03-24T03:52:53.827Z,5.1
2019-03-24T03:53:53.729Z,5.1
2019-03-24T03:54:53.660Z,5.1
2019-03-24T03:55:53.543Z,5.1
2019-03-24T03:56:53.491Z,5.1
2019-03-24T03:57:53.408Z,5.1
2019-03-24T03:58:53.330Z,5.1
2019-03-24T03:59:53.282Z,5.1
2019-03-24T04:00:53.186Z,5.1
2019-03-24T04:01:53.627Z,5.1
2019-03-24T04:02:53.566Z,5.2
2019-03-24T04:11:51.960Z,5.5
2019-03-24T04:12:51.875Z,5.6
2019-03-24T04:13:51.794Z,5.5
2019-03-24T04:14:51.756Z,5.5
2019-03-24T04:15:51.674Z,5.4
2019-03-24T04:17:05.562Z,5.4
2019-03-24T04:18:08.115Z,5.3
2019-03-24T04:19:08.020Z,5.3
2019-03-24T04:20:07.940Z,5.3
2019-03-24T04:21:07.911Z,5.3
2019-03-24T04:22:08.269Z,5.2
2019-03-24T04:23:08.192Z,5.2
2019-03-24T04:24:08.210Z,5.2
2019-03-24T04:25:08.139Z,5.1
2019-03-24T04:26:08.041Z,5.1
2019-03-24T04:27:07.978Z,5.2
2019-03-24T04:28:07.910Z,5.1
2019-03-24T04:29:07.859Z,5.1
2019-03-24T04:30:07.790Z,5.1
2019-03-24T04:31:07.697Z,5.1
2019-03-24T04:32:08.079Z,5.1
2019-03-24T04:33:07.999Z,5
2019-03-24T04:34:07.941Z,4.9
2019-03-24T04:35:07.852Z,4.9
2019-03-24T04:36:07.736Z,4.9
2019-03-24T04:37:07.677Z,4.8
2019-03-24T04:38:07.591Z,4.8
2019-03-24T04:39:07.486Z,4.7
2019-03-24T04:40:07.426Z,4.6
2019-03-24T04:41:07.364Z,4.6
2019-03-24T04:42:07.754Z,4.5
2019-03-24T04:43:07.668Z,4.4
2019-03-24T04:44:07.578Z,4.4
2019-03-24T04:45:07.470Z,4.4
2019-03-24T04:46:07.364Z,4.4
2019-03-24T04:47:17.434Z,4.3
2019-03-24T04:48:17.338Z,4.3
2019-03-24T04:49:17.227Z,4.3
2019-03-24T04:50:17.106Z,4.3
2019-03-24T04:51:16.972Z,4.3
2019-03-24T04:52:17.298Z,4.3
2019-03-24T04:53:17.276Z,4.3
2019-03-24T04:54:17.166Z,4.4
2019-03-24T04:55:17.034Z,4.4
2019-03-24T04:56:16.932Z,4.4
2019-03-24T04:57:16.806Z,4.4
2019-03-24T04:58:16.752Z,4.5
2019-03-24T04:59:16.635Z,4.5
2019-03-24T05:00:16.594Z,4.5
2019-03-24T05:01:16.502Z,4.5
2019-03-24T05:02:16.885Z,4.5
2019-03-24T05:12:14.912Z,5
2019-03-24T05:13:14.840Z,5
2019-03-24T05:14:14.740Z,4.9
2019-03-24T05:15:14.621Z,4.9
2019-03-24T05:16:14.519Z,4.9
2019-03-24T05:17:14.404Z,4.7
2019-03-24T05:18:14.291Z,4.7
2019-03-24T05:19:14.219Z,4.7
2019-03-24T05:20:14.108Z,4.7
2019-03-24T05:21:13.991Z,4.7
2019-03-24T05:22:14.331Z,4.7
2019-03-24T05:23:14.203Z,4.8
2019-03-24T05:24:14.118Z,4.8
2019-03-24T05:25:14.014Z,4.8
2019-03-24T05:26:13.904Z,4.8
2019-03-24T05:27:13.795Z,4.8
2019-03-24T05:28:13.684Z,4.8
2019-03-24T05:29:13.602Z,4.8
2019-03-24T05:30:13.524Z,4.7
2019-03-24T05:31:13.416Z,4.7
2019-03-24T05:32:13.748Z,4.7
2019-03-24T05:33:13.634Z,4.7
2019-03-24T05:34:13.543Z,4.7
2019-03-24T05:35:13.428Z,4.7
2019-03-24T05:36:13.331Z,4.7
2019-03-24T05:37:13.223Z,4.7
2019-03-24T05:38:13.108Z,4.6
2019-03-24T05:39:13.047Z,4.6
2019-03-24T05:40:12.974Z,4.6
2019-03-24T05:41:12.875Z,4.6
2019-03-24T05:42:13.212Z,4.6
2019-03-24T05:43:13.216Z,4.6
2019-03-24T05:44:13.123Z,4.5
2019-03-24T05:45:12.999Z,4.6
2019-03-24T05:46:12.917Z,4.5
2019-03-24T05:47:12.819Z,4.6
2019-03-24T05:48:12.700Z,4.6
2019-03-24T05:49:12.641Z,4.5
2019-03-24T05:50:12.531Z,4.6
2019-03-24T05:51:12.419Z,4.6
2019-03-24T05:52:12.749Z,4.6
2019-03-24T05:53:12.695Z,4.6
2019-03-24T06:02:10.883Z,5.4
2019-03-24T06:03:10.857Z,5.4
2019-03-24T06:04:10.748Z,5.4
2019-03-24T06:05:10.645Z,5.4
2019-03-24T06:06:10.523Z,5.4
2019-03-24T06:07:10.401Z,5.3
2019-03-24T06:08:10.275Z,5.3
2019-03-24T06:09:10.162Z,5.3
2019-03-24T06:10:10.069Z,5.3
2019-03-24T06:11:10.001Z,5.3
2019-03-24T06:12:10.329Z,5.3
2019-03-24T06:13:10.215Z,5.3
2019-03-24T06:14:10.108Z,5.2
2019-03-24T06:15:10.012Z,5.2
2019-03-24T06:16:09.921Z,5.2
2019-03-24T06:17:09.869Z,5.2
2019-03-24T06:18:09.774Z,5.2
2019-03-24T06:19:09.678Z,5.3
2019-03-24T06:20:09.573Z,5.3
2019-03-24T06:21:09.502Z,5.3
2019-03-24T06:22:09.843Z,5.3
2019-03-24T06:23:09.735Z,5.3
2019-03-24T06:24:09.647Z,5.3
2019-03-24T06:25:09.565Z,5.4
2019-03-24T06:26:09.487Z,5.4
2019-03-24T06:27:09.403Z,5.4
2019-03-24T06:28:09.288Z,5.4
2019-03-24T06:29:09.191Z,5.4
2019-03-24T06:30:09.074Z,5.5
2019-03-24T06:31:08.993Z,5.6
2019-03-24T06:32:09.387Z,5.7
2019-03-24T06:33:09.279Z,5.7
2019-03-24T06:34:09.214Z,5.8
2019-03-24T06:35:09.128Z,5.9
2019-03-24T06:36:09.020Z,6
2019-03-24T06:37:08.908Z,6.1
2019-03-24T06:38:08.799Z,6.3
2019-03-24T06:39:08.693Z,6.4
2019-03-24T06:40:08.610Z,6.5
2019-03-24T06:41:08.506Z,6.6
2019-03-24T06:42:08.848Z,6.8
2019-03-24T06:43:08.740Z,7
2019-03-24T06:44:08.640Z,7.2
2019-03-24T06:45:08.540Z,7.3
2019-03-24T06:46:08.439Z,7.5
2019-03-24T06:47:08.346Z,7.6
2019-03-24T06:48:08.245Z,7.8
2019-03-24T06:49:08.163Z,7.9
2019-03-24T06:50:08.062Z,8
2019-03-24T06:51:07.977Z,8.1
2019-03-24T06:52:08.311Z,8.3
2019-03-24T06:53:08.207Z,8.4
2019-03-24T06:54:08.119Z,8.5
2019-03-24T06:55:08.010Z,8.7
2019-03-24T06:56:07.914Z,8.8
2019-03-24T06:57:07.810Z,9.1
2019-03-24T06:58:07.705Z,9.3
2019-03-24T06:59:07.612Z,9.4
2019-03-24T07:00:07.520Z,9.5
2019-03-24T07:01:07.420Z,9.6
2019-03-24T07:02:07.779Z,9.8
2019-03-24T07:03:07.738Z,9.9
2019-03-24T07:04:07.669Z,10.2
2019-03-24T07:05:07.596Z,10.4
2019-03-24T07:06:07.480Z,10.7
2019-03-24T07:07:07.369Z,10.8
2019-03-24T07:08:07.298Z,10.8
2019-03-24T07:09:07.308Z,11
2019-03-24T07:10:07.222Z,11.2
2019-03-24T07:11:14.414Z,11.3
2019-03-24T07:12:14.730Z,11.5
2019-03-24T07:13:14.631Z,11.6
2019-03-24T07:14:14.543Z,11.6
2019-03-24T07:15:14.438Z,11.7
2019-03-24T07:16:14.350Z,11.6
2019-03-24T07:17:14.240Z,11.8
2019-03-24T07:18:14.123Z,11.8
2019-03-24T07:19:14.022Z,11.9
2019-03-24T07:20:17.075Z,12.1
2019-03-24T07:21:16.971Z,12.2
2019-03-24T07:22:17.298Z,12.2
2019-03-24T07:23:17.218Z,12.2
2019-03-24T07:24:17.124Z,12.3
2019-03-24T07:25:17.036Z,12.3
2019-03-24T07:26:16.924Z,12.3
2019-03-24T07:27:16.844Z,12.2
2019-03-24T07:28:16.743Z,12.1
2019-03-24T07:29:16.726Z,12.1
2019-03-24T07:30:16.645Z,12
2019-03-24T07:31:16.522Z,11.9
2019-03-24T07:32:16.833Z,11.9
2019-03-24T07:33:16.736Z,11.9
2019-03-24T07:34:16.638Z,11.8
2019-03-24T07:35:18.888Z,11.8
2019-03-24T07:36:18.788Z,11.6
2019-03-24T07:37:18.690Z,11.6
2019-03-24T07:38:18.575Z,11.5
2019-03-24T07:39:18.472Z,11.6
2019-03-24T07:40:18.360Z,11.5
2019-03-24T07:41:18.284Z,11.4
2019-03-24T07:42:18.592Z,11.4
2019-03-24T07:43:19.178Z,11.4
2019-03-24T07:44:19.067Z,11.4
2019-03-24T07:45:18.984Z,11.5
2019-03-24T07:46:18.862Z,11.6
2019-03-24T07:47:18.748Z,11.8
2019-03-24T07:48:20.043Z,11.9
2019-03-24T07:49:19.952Z,12.1
2019-03-24T07:50:19.913Z,12.3
2019-03-24T07:51:19.804Z,12.3
2019-03-24T07:52:20.099Z,12.5
2019-03-24T07:53:20.064Z,12.6
2019-03-24T07:54:19.949Z,12.7
2019-03-24T07:55:19.852Z,12.7
2019-03-24T07:56:19.772Z,12.7
2019-03-24T07:57:19.648Z,12.7
2019-03-24T07:58:19.548Z,12.8
2019-03-24T07:59:19.434Z,13
2019-03-24T08:00:19.326Z,13.1
2019-03-24T08:01:19.214Z,13.2
2019-03-24T08:02:19.572Z,13.2
2019-03-24T08:03:19.486Z,13.2
2019-03-24T08:04:19.395Z,13.2
2019-03-24T08:05:19.286Z,13.3
2019-03-24T08:06:19.176Z,13.4
2019-03-24T08:07:19.094Z,13.5
2019-03-24T08:08:18.988Z,13.5
2019-03-24T08:09:18.917Z,13.7
2019-03-24T08:10:18.852Z,13.7
2019-03-24T08:11:18.763Z,13.8
2019-03-24T08:12:19.110Z,13.9
2019-03-24T08:13:19.006Z,13.9
2019-03-24T08:14:18.884Z,14
2019-03-24T08:15:18.786Z,14.1
2019-03-24T08:16:18.662Z,14.1
2019-03-24T08:17:19.317Z,14.2
2019-03-24T08:18:33.810Z,14.3
2019-03-24T08:19:33.686Z,14.4
2019-03-24T08:20:33.600Z,14.5
2019-03-24T08:21:33.496Z,14.4
2019-03-24T08:22:33.815Z,14.3
2019-03-24T08:23:33.728Z,14.4
2019-03-24T08:24:33.637Z,14.4
2019-03-24T08:25:33.546Z,14.5
2019-03-24T08:26:33.466Z,14.5
2019-03-24T08:27:33.349Z,14.5
2019-03-24T08:28:33.309Z,14.4
2019-03-24T08:29:33.217Z,14.5
2019-03-24T08:30:33.106Z,14.5
2019-03-24T08:31:33.030Z,14.6
2019-03-24T08:32:33.323Z,14.7
2019-03-24T08:33:33.251Z,14.8
2019-03-24T08:34:33.154Z,14.9
2019-03-24T08:35:33.078Z,14.8
2019-03-24T08:36:33.017Z,15
2019-03-24T08:37:32.906Z,15
2019-03-24T08:38:32.842Z,15.1
2019-03-24T08:39:32.793Z,15.1
2019-03-24T08:40:32.718Z,15.4
2019-03-24T08:41:32.645Z,15.4
2019-03-24T08:42:32.986Z,15.5
2019-03-24T08:43:32.885Z,15.6
2019-03-24T08:44:32.786Z,15.7
2019-03-24T08:45:32.715Z,15.8
2019-03-24T08:46:32.615Z,15.9
2019-03-24T08:47:32.515Z,16
2019-03-24T08:48:41.755Z,16
2019-03-24T08:49:41.703Z,16
2019-03-24T08:50:41.600Z,15.8
2019-03-24T08:51:41.497Z,15.8
2019-03-24T08:52:44.207Z,15.7
2019-03-24T08:53:44.109Z,15.6
2019-03-24T08:54:44.037Z,15.7
2019-03-24T08:55:43.949Z,15.6
2019-03-24T08:56:46.896Z,15.6
2019-03-24T08:57:46.799Z,15.8
2019-03-24T08:58:46.719Z,15.8
2019-03-24T08:59:46.656Z,15.9
2019-03-24T09:00:46.549Z,15.9
2019-03-24T09:01:46.456Z,15.9
2019-03-24T09:02:46.811Z,16
2019-03-24T09:03:46.712Z,16.1
2019-03-24T09:04:46.619Z,16
2019-03-24T09:05:46.545Z,16.2
2019-03-24T09:06:46.455Z,16.2
2019-03-24T09:07:46.394Z,16.2
2019-03-24T09:08:46.302Z,16.3
2019-03-24T09:09:50.891Z,16.2
2019-03-24T09:10:50.799Z,16.3
2019-03-24T09:11:50.693Z,16.3
2019-03-24T09:12:51.045Z,16.3
2019-03-24T09:13:50.938Z,16.4
2019-03-24T09:14:51.087Z,16.4
2019-03-24T09:15:50.997Z,16.2
2019-03-24T09:16:50.900Z,15.6
2019-03-24T09:17:50.793Z,15.7
2019-03-24T09:18:53.673Z,15.8
2019-03-24T09:19:53.577Z,15.9
2019-03-24T09:20:53.486Z,16
2019-03-24T09:21:53.395Z,16.1
2019-03-24T09:22:53.743Z,16.2
2019-03-24T09:23:53.623Z,16.3
2019-03-24T09:24:53.536Z,16.4
2019-03-24T09:25:53.466Z,16.3
2019-03-24T09:26:53.387Z,16.2
2019-03-24T09:27:53.305Z,16.2
2019-03-24T09:28:53.227Z,16.3
2019-03-24T09:29:53.145Z,16.3
2019-03-24T09:30:53.087Z,16.3
2019-03-24T09:31:53.023Z,16.3
2019-03-24T09:32:53.382Z,16
2019-03-24T09:33:53.288Z,16.1
2019-03-24T09:34:53.193Z,16.2
2019-03-24T09:35:53.135Z,16.3
2019-03-24T09:36:53.020Z,16.4
2019-03-24T09:37:52.948Z,16.4
2019-03-24T09:38:53.119Z,16.4
2019-03-24T09:39:53.046Z,16.3
2019-03-24T09:40:52.955Z,16.4
2019-03-24T09:41:52.846Z,16.5
2019-03-24T09:42:53.697Z,16.7
2019-03-24T09:43:53.611Z,16.8
2019-03-24T09:44:53.511Z,16.7
2019-03-24T09:45:53.501Z,16.6
2019-03-24T09:46:56.209Z,16.7
2019-03-24T09:47:56.107Z,16.6
2019-03-24T09:49:03.974Z,16.5
2019-03-24T09:50:03.864Z,16.5
2019-03-24T09:51:03.845Z,16.4
2019-03-24T09:52:03.756Z,16.2
2019-03-24T09:53:04.144Z,16.2
2019-03-24T09:54:04.111Z,16.2
2019-03-24T09:55:04.022Z,16.2
2019-03-24T09:56:03.925Z,16.4
2019-03-24T09:57:03.859Z,16.4
2019-03-24T09:58:03.776Z,16.4
2019-03-24T09:59:03.675Z,16.6
2019-03-24T10:00:03.595Z,16.5
2019-03-24T10:01:06.384Z,16.3
2019-03-24T10:02:06.271Z,16.4
2019-03-24T10:03:06.586Z,16.3
2019-03-24T10:04:06.487Z,16.3
2019-03-24T10:06:09.026Z,16.2
2019-03-24T10:07:08.930Z,16.3
2019-03-24T10:08:08.829Z,16.5
2019-03-24T10:09:08.730Z,16.6
2019-03-24T10:10:08.649Z,16.6
2019-03-24T10:11:08.547Z,16.7
2019-03-24T10:12:08.463Z,16.7
2019-03-24T10:13:08.845Z,16.7
2019-03-24T10:14:08.732Z,16.8
2019-03-24T10:15:08.644Z,16.8
2019-03-24T10:16:08.574Z,16.7
2019-03-24T10:17:08.480Z,16.7
2019-03-24T10:18:08.384Z,16.6
2019-03-24T10:19:14.981Z,16.7
2019-03-24T10:20:14.887Z,16.6
2019-03-24T10:21:14.799Z,16.5
2019-03-24T10:22:14.703Z,16.5
2019-03-24T10:23:15.062Z,16.7
2019-03-24T10:24:14.972Z,16.7
2019-03-24T10:25:14.887Z,16.8
2019-03-24T10:26:14.814Z,16.9
2019-03-24T10:27:14.799Z,16.6
2019-03-24T10:28:14.696Z,16.6
2019-03-24T10:29:14.609Z,16.6
2019-03-24T10:30:14.555Z,16.4
2019-03-24T10:31:14.460Z,16.4
2019-03-24T10:32:14.425Z,16.4
2019-03-24T10:33:14.759Z,16.4
2019-03-24T10:34:14.658Z,16.5
2019-03-24T10:35:14.554Z,16.5
2019-03-24T10:36:14.492Z,16.5
2019-03-24T10:37:14.425Z,16.5
2019-03-24T10:38:14.344Z,16.3
2019-03-24T10:39:14.244Z,16.4
2019-03-24T10:40:14.140Z,16.4
2019-03-24T10:41:14.030Z,16.5
2019-03-24T10:42:13.950Z,16.5
2019-03-24T10:43:14.303Z,16.7
2019-03-24T10:44:14.224Z,16.8
2019-03-24T10:45:14.330Z,16.9
2019-03-24T10:46:14.210Z,16.8
2019-03-24T10:47:14.096Z,16.8
2019-03-24T10:48:13.994Z,16.8
2019-03-24T10:49:25.728Z,16.7
2019-03-24T10:50:25.620Z,16.7
2019-03-24T10:51:25.622Z,16.7
2019-03-24T10:52:25.550Z,16.6
2019-03-24T10:53:25.847Z,16.6
2019-03-24T10:54:25.787Z,16.6
2019-03-24T10:55:25.686Z,16.5
2019-03-24T10:56:25.576Z,16.3
2019-03-24T10:57:25.574Z,16.2
2019-03-24T10:58:25.464Z,16.3
2019-03-24T10:59:25.387Z,16.4
2019-03-24T11:00:25.310Z,16.3
2019-03-24T11:01:25.252Z,16.4
2019-03-24T11:02:25.154Z,16.4
2019-03-24T11:03:25.487Z,16.4
2019-03-24T11:04:25.382Z,16.3
2019-03-24T11:05:25.316Z,16.2
2019-03-24T11:06:25.242Z,16.3
2019-03-24T11:07:26.157Z,16.2
2019-03-24T11:08:26.042Z,16.3
2019-03-24T11:09:25.926Z,16.3
2019-03-24T11:10:25.878Z,16.2
2019-03-24T11:11:25.774Z,16.2
2019-03-24T11:12:25.662Z,16.3
2019-03-24T11:13:26.016Z,16.3
2019-03-24T11:14:25.913Z,16.2
2019-03-24T11:15:25.796Z,16.4
2019-03-24T11:16:25.697Z,16.4
2019-03-24T11:17:25.594Z,16.4
2019-03-24T11:18:25.478Z,16.3
2019-03-24T11:19:36.560Z,16.3
2019-03-24T11:20:36.508Z,16.3
2019-03-24T11:21:36.398Z,16.3
2019-03-24T11:22:36.282Z,16.5
2019-03-24T11:23:36.603Z,16.5
2019-03-24T11:24:36.518Z,16.4
2019-03-24T11:25:36.414Z,16.4
2019-03-24T11:26:36.357Z,16.4
2019-03-24T11:27:36.251Z,16.6
2019-03-24T11:28:36.174Z,16.6
2019-03-24T11:29:36.058Z,16.5
2019-03-24T11:30:35.948Z,16.6
2019-03-24T11:31:35.871Z,16.6
2019-03-24T11:32:35.756Z,16.7
2019-03-24T11:33:36.086Z,16.6
2019-03-24T11:34:36.301Z,16.7
2019-03-24T11:35:36.608Z,16.8
2019-03-24T11:36:36.800Z,16.9
2019-03-24T11:37:37.262Z,16.9
2019-03-24T11:38:37.452Z,16.8
2019-03-24T11:39:37.338Z,16.8
2019-03-24T11:40:37.285Z,16.7
2019-03-24T11:41:37.191Z,16.5
2019-03-24T11:42:37.090Z,16.3
2019-03-24T11:43:37.406Z,16.3
2019-03-24T11:44:37.312Z,16.2
2019-03-24T11:45:37.262Z,16
2019-03-24T11:46:37.302Z,15.9
2019-03-24T11:47:37.332Z,16
2019-03-24T11:48:37.251Z,16
2019-03-24T11:49:49.513Z,15.9
2019-03-24T11:50:49.412Z,16
2019-03-24T11:51:49.327Z,16.1
2019-03-24T11:52:49.249Z,16.1
2019-03-24T11:53:49.849Z,16.1
2019-03-24T11:54:49.739Z,16.2
2019-03-24T11:55:49.624Z,16.2
2019-03-24T11:56:49.509Z,16.2
2019-03-24T11:57:51.918Z,16.3
2019-03-24T11:58:52.393Z,16.3
2019-03-24T11:59:52.791Z,16.1
2019-03-24T12:00:52.675Z,16.1
2019-03-24T12:01:52.552Z,16.1
2019-03-24T12:02:52.611Z,16.1
2019-03-24T12:03:55.804Z,16.1
2019-03-24T12:04:55.703Z,16.1
2019-03-24T12:05:55.889Z,16
2019-03-24T12:06:55.759Z,16.1
2019-03-24T12:07:55.685Z,16
2019-03-24T12:08:55.611Z,16
2019-03-24T12:09:55.513Z,16.1
2019-03-24T12:10:55.383Z,16.2
2019-03-24T12:11:55.279Z,16.2
2019-03-24T12:12:55.204Z,16.2
2019-03-24T12:13:56.033Z,16.2
2019-03-24T12:14:55.923Z,16.2
2019-03-24T12:15:55.803Z,16.2
2019-03-24T12:16:55.694Z,16.1
2019-03-24T12:17:55.612Z,16
2019-03-24T12:18:55.525Z,15.9
2019-03-24T12:19:57.847Z,16
2019-03-24T12:20:57.777Z,16
2019-03-24T12:21:57.661Z,16.1
2019-03-24T12:22:57.555Z,16
2019-03-24T12:23:57.896Z,16
2019-03-24T12:24:57.809Z,15.9
2019-03-24T12:25:57.723Z,15.9
2019-03-24T12:26:57.623Z,15.9
2019-03-24T12:27:57.559Z,15.9
2019-03-24T12:28:57.464Z,15.9
2019-03-24T12:29:57.366Z,15.9
2019-03-24T12:30:57.277Z,15.9
2019-03-24T12:31:57.226Z,15.9
2019-03-24T12:32:57.145Z,15.8
2019-03-24T12:33:57.534Z,15.8
2019-03-24T12:34:57.671Z,15.9
2019-03-24T12:35:57.619Z,15.9
2019-03-24T12:36:57.517Z,15.9
2019-03-24T12:37:57.645Z,15.9
2019-03-24T12:38:57.559Z,15.9
2019-03-24T12:39:58.745Z,16
2019-03-24T12:40:58.663Z,15.9
2019-03-24T12:41:58.617Z,15.8
2019-03-24T12:42:58.544Z,15.8
2019-03-24T12:43:58.897Z,15.8
2019-03-24T12:44:58.825Z,15.8
2019-03-24T12:45:58.711Z,15.8
2019-03-24T12:46:58.633Z,15.9
2019-03-24T12:47:58.555Z,15.9
2019-03-24T12:48:58.471Z,15.9
2019-03-24T12:50:10.498Z,16
2019-03-24T12:51:10.431Z,16.1
2019-03-24T12:52:10.346Z,16.2
2019-03-24T12:53:13.075Z,16.3
2019-03-24T12:54:13.409Z,16.2
2019-03-24T12:55:13.318Z,16.1
2019-03-24T12:56:13.221Z,16
2019-03-24T12:57:13.151Z,16.1
2019-03-24T12:58:13.116Z,16.1
2019-03-24T12:59:13.025Z,16.2
2019-03-24T13:00:12.986Z,16.2
2019-03-24T13:01:12.900Z,16.2
2019-03-24T13:02:12.805Z,16.2
2019-03-24T13:03:12.783Z,16.1
2019-03-24T13:04:13.097Z,16.1
2019-03-24T13:05:12.982Z,16.1
2019-03-24T13:06:12.903Z,16.2
2019-03-24T13:07:12.860Z,16.2
2019-03-24T13:08:12.767Z,16.3
2019-03-24T13:09:12.661Z,16.3
2019-03-24T13:10:12.822Z,16.3
2019-03-24T13:11:12.763Z,16.3
2019-03-24T13:12:12.664Z,16.3
2019-03-24T13:13:12.606Z,16.2
2019-03-24T13:14:15.546Z,16.2
2019-03-24T13:15:15.465Z,16.1
2019-03-24T13:16:15.391Z,16.1
2019-03-24T13:17:15.305Z,16.1
2019-03-24T13:18:15.259Z,16.1
2019-03-24T13:19:15.243Z,16.1
2019-03-24T13:20:38.922Z,16.1
2019-03-24T13:21:38.915Z,16.1
2019-03-24T13:22:38.858Z,16.1
2019-03-24T13:23:38.814Z,16.2
2019-03-24T13:24:39.268Z,16.2
2019-03-24T13:25:39.217Z,16.1
2019-03-24T13:26:39.147Z,16
2019-03-24T13:27:39.123Z,16.1
2019-03-24T13:28:39.059Z,16.1
2019-03-24T13:29:38.970Z,16
2019-03-24T13:30:38.877Z,16.1
2019-03-24T13:31:38.778Z,16.1
2019-03-24T13:32:38.678Z,16.2
2019-03-24T13:33:38.661Z,16.2
2019-03-24T13:34:39.014Z,16.3
2019-03-24T13:35:38.938Z,16.3
2019-03-24T13:36:38.833Z,16.4
2019-03-24T13:37:38.714Z,16.4
2019-03-24T13:38:38.601Z,16.4
2019-03-24T13:39:38.510Z,16.4
2019-03-24T13:40:38.429Z,16.4
2019-03-24T13:41:38.313Z,16.2
2019-03-24T13:42:38.197Z,16.2
2019-03-24T13:43:38.321Z,16.2
2019-03-24T13:44:38.669Z,16.2
2019-03-24T13:45:38.570Z,16.1
2019-03-24T13:46:38.470Z,16.1
2019-03-24T13:47:38.370Z,16.1
2019-03-24T13:48:38.330Z,16.1
2019-03-24T13:49:38.256Z,16.1
2019-03-24T13:50:38.167Z,16
2019-03-24T13:51:38.067Z,16.1
2019-03-24T13:52:37.962Z,16
2019-03-24T13:53:38.076Z,16.1
2019-03-24T13:54:38.399Z,16.1
2019-03-24T13:55:38.324Z,16
2019-03-24T13:56:38.275Z,16
2019-03-24T13:57:38.172Z,16
2019-03-24T13:58:38.052Z,16
2019-03-24T13:59:37.956Z,16
2019-03-24T14:00:37.874Z,16
2019-03-24T14:01:37.758Z,16
2019-03-24T14:02:37.661Z,16
2019-03-24T14:03:37.553Z,16
2019-03-24T14:04:37.882Z,16
2019-03-24T14:05:37.874Z,15.9
2019-03-24T14:06:37.764Z,16
2019-03-24T14:07:37.660Z,16
2019-03-24T14:08:37.550Z,16
2019-03-24T14:09:37.451Z,16
2019-03-24T14:10:37.408Z,15.9
2019-03-24T14:11:37.349Z,16
2019-03-24T14:12:37.238Z,16.1
2019-03-24T14:13:37.147Z,16
2019-03-24T14:14:37.447Z,16
2019-03-24T14:15:37.338Z,16
2019-03-24T14:16:37.282Z,16
2019-03-24T14:17:37.234Z,16.1
2019-03-24T14:18:37.178Z,16.3
2019-03-24T14:19:37.060Z,16.3
2019-03-24T14:20:44.526Z,16.4